sensor_id;sensor_type;location;lat;lon;timestamp;pressure;altitude;pressure_sealevel;temperature;humidity
47366;BME280;33105;47.964;7.982;2023-10-13T00:00:40;96843.47;;;16.48;57.21
47366;BME280;33105;47.964;7.982;2023-10-13T00:03:42;96847.94;;;16.44;57.17
47366;BME280;33105;47.964;7.982;2023-10-13T00:06:43;96848.38;;;16.51;57.23
47366;BME280;33105;47.964;7.982;2023-10-13T00:09:44;96850.31;;;16.31;57.50
47366;BME280;33105;47.964;7.982;2023-10-13T00:12:45;96845.00;;;16.35;57.30
47366;BME280;33105;47.964;7.982;2023-10-13T00:15:50;96843.59;;;16.38;57.42
47366;BME280;33105;47.964;7.982;2023-10-13T00:18:57;96835.31;;;16.38;57.40
47366;BME280;33105;47.964;7.982;2023-10-13T00:21:59;96835.91;;;16.34;57.78
47366;BME280;33105;47.964;7.982;2023-10-13T00:25:09;96836.66;;;16.21;57.99
47366;BME280;33105;47.964;7.982;2023-10-13T00:28:20;96826.53;;;16.36;57.43
47366;BME280;33105;47.964;7.982;2023-10-13T00:31:27;96826.69;;;16.25;57.83
47366;BME280;33105;47.964;7.982;2023-10-13T00:34:34;96827.81;;;16.24;57.35
47366;BME280;33105;47.964;7.982;2023-10-13T00:37:38;96813.78;;;16.02;58.20
47366;BME280;33105;47.964;7.982;2023-10-13T00:40:45;96816.28;;;15.98;58.25
47366;BME280;33105;47.964;7.982;2023-10-13T00:43:53;96813.78;;;16.02;58.53
47366;BME280;33105;47.964;7.982;2023-10-13T00:47:10;96816.81;;;16.01;58.48
47366;BME280;33105;47.964;7.982;2023-10-13T00:50:17;96821.09;;;15.88;58.72
47366;BME280;33105;47.964;7.982;2023-10-13T00:53:19;96816.84;;;15.77;58.63
47366;BME280;33105;47.964;7.982;2023-10-13T00:56:25;96813.34;;;15.90;58.65
47366;BME280;33105;47.964;7.982;2023-10-13T00:59:31;96813.50;;;15.80;59.04
47366;BME280;33105;47.964;7.982;2023-10-13T01:02:37;96821.28;;;15.73;59.55
47366;BME280;33105;47.964;7.982;2023-10-13T01:05:39;96817.19;;;15.70;59.03
47366;BME280;33105;47.964;7.982;2023-10-13T01:08:41;96811.72;;;15.65;59.83
47366;BME280;33105;47.964;7.982;2023-10-13T01:11:46;96809.91;;;15.55;60.10
47366;BME280;33105;47.964;7.982;2023-10-13T01:14:49;96808.56;;;15.77;59.18
47366;BME280;33105;47.964;7.982;2023-10-13T01:17:50;96805.25;;;15.51;59.79
47366;BME280;33105;47.964;7.982;2023-10-13T01:20:51;96805.97;;;15.61;59.87
47366;BME280;33105;47.964;7.982;2023-10-13T01:24:00;96806.63;;;15.53;59.62
47366;BME280;33105;47.964;7.982;2023-10-13T01:27:02;96812.66;;;15.55;59.89
47366;BME280;33105;47.964;7.982;2023-10-13T01:30:20;96810.03;;;15.40;60.64
47366;BME280;33105;47.964;7.982;2023-10-13T01:33:27;96815.75;;;15.49;59.64
47366;BME280;33105;47.964;7.982;2023-10-13T01:36:29;96801.22;;;15.43;60.58
47366;BME280;33105;47.964;7.982;2023-10-13T01:39:36;96804.09;;;15.33;60.81
47366;BME280;33105;47.964;7.982;2023-10-13T01:42:38;96807.28;;;15.40;60.66
47366;BME280;33105;47.964;7.982;2023-10-13T01:45:40;96805.13;;;15.37;60.86
47366;BME280;33105;47.964;7.982;2023-10-13T01:48:48;96800.69;;;15.41;60.38
47366;BME280;33105;47.964;7.982;2023-10-13T01:51:49;96801.00;;;15.35;60.63
47366;BME280;33105;47.964;7.982;2023-10-13T01:54:51;96798.91;;;15.26;61.44
47366;BME280;33105;47.964;7.982;2023-10-13T01:57:52;96798.03;;;15.31;60.96
47366;BME280;33105;47.964;7.982;2023-10-13T02:00:56;96798.66;;;15.23;61.10
47366;BME280;33105;47.964;7.982;2023-10-13T02:03:57;96795.28;;;15.31;61.19
47366;BME280;33105;47.964;7.982;2023-10-13T02:07:05;96785.72;;;15.23;61.34
47366;BME280;33105;47.964;7.982;2023-10-13T02:10:09;96792.63;;;15.21;61.30
47366;BME280;33105;47.964;7.982;2023-10-13T02:13:14;96785.50;;;15.20;61.37
47366;BME280;33105;47.964;7.982;2023-10-13T02:16:17;96775.75;;;15.32;60.38
47366;BME280;33105;47.964;7.982;2023-10-13T02:19:23;96786.03;;;15.22;61.39
47366;BME280;33105;47.964;7.982;2023-10-13T02:22:28;96774.19;;;15.21;60.92
47366;BME280;33105;47.964;7.982;2023-10-13T02:25:30;96773.94;;;15.18;61.07
47366;BME280;33105;47.964;7.982;2023-10-13T02:28:44;96765.00;;;15.07;61.96
47366;BME280;33105;47.964;7.982;2023-10-13T02:31:45;96762.25;;;15.07;62.04
47366;BME280;33105;47.964;7.982;2023-10-13T02:34:56;96764.78;;;14.98;62.29
47366;BME280;33105;47.964;7.982;2023-10-13T02:38:07;96773.34;;;14.97;61.93
47366;BME280;33105;47.964;7.982;2023-10-13T02:41:13;96771.41;;;14.97;61.59
47366;BME280;33105;47.964;7.982;2023-10-13T02:44:27;96761.19;;;15.03;61.57
47366;BME280;33105;47.964;7.982;2023-10-13T02:47:31;96754.94;;;15.21;60.51
47366;BME280;33105;47.964;7.982;2023-10-13T02:50:32;96751.25;;;15.31;60.96
47366;BME280;33105;47.964;7.982;2023-10-13T02:53:34;96743.16;;;15.16;61.23
47366;BME280;33105;47.964;7.982;2023-10-13T02:56:36;96743.38;;;15.19;60.51
47366;BME280;33105;47.964;7.982;2023-10-13T02:59:37;96723.16;;;15.34;60.24
47366;BME280;33105;47.964;7.982;2023-10-13T03:02:41;96729.09;;;15.41;60.02
47366;BME280;33105;47.964;7.982;2023-10-13T03:05:46;96729.56;;;15.24;60.74
47366;BME280;33105;47.964;7.982;2023-10-13T03:08:48;96724.00;;;15.06;60.76
47366;BME280;33105;47.964;7.982;2023-10-13T03:11:50;96712.34;;;15.14;60.58
47366;BME280;33105;47.964;7.982;2023-10-13T03:14:52;96716.16;;;15.18;60.49
47366;BME280;33105;47.964;7.982;2023-10-13T03:17:58;96710.25;;;15.29;60.07
47366;BME280;33105;47.964;7.982;2023-10-13T03:21:02;96707.56;;;15.24;60.18
47366;BME280;33105;47.964;7.982;2023-10-13T03:24:04;96712.81;;;15.21;60.11
47366;BME280;33105;47.964;7.982;2023-10-13T03:27:07;96710.84;;;15.26;59.87
47366;BME280;33105;47.964;7.982;2023-10-13T03:30:10;96698.78;;;15.22;60.15
47366;BME280;33105;47.964;7.982;2023-10-13T03:33:15;96708.31;;;15.30;59.97
47366;BME280;33105;47.964;7.982;2023-10-13T03:36:26;96707.03;;;15.22;60.30
47366;BME280;33105;47.964;7.982;2023-10-13T03:39:45;96703.16;;;15.00;60.52
47366;BME280;33105;47.964;7.982;2023-10-13T03:42:54;96696.78;;;15.28;59.12
47366;BME280;33105;47.964;7.982;2023-10-13T03:46:05;96690.63;;;15.36;59.40
47366;BME280;33105;47.964;7.982;2023-10-13T03:49:09;96695.63;;;15.34;59.14
47366;BME280;33105;47.964;7.982;2023-10-13T03:52:13;96690.81;;;15.21;59.59
47366;BME280;33105;47.964;7.982;2023-10-13T03:55:15;96684.81;;;15.14;60.20
47366;BME280;33105;47.964;7.982;2023-10-13T03:58:19;96681.34;;;15.08;60.59
47366;BME280;33105;47.964;7.982;2023-10-13T04:01:27;96682.16;;;15.09;60.28
47366;BME280;33105;47.964;7.982;2023-10-13T04:04:47;96680.03;;;15.01;60.70
47366;BME280;33105;47.964;7.982;2023-10-13T04:08:02;96681.78;;;14.91;60.89
47366;BME280;33105;47.964;7.982;2023-10-13T04:11:21;96679.78;;;14.97;60.44
47366;BME280;33105;47.964;7.982;2023-10-13T04:14:42;96668.69;;;14.83;60.89
47366;BME280;33105;47.964;7.982;2023-10-13T04:17:58;96668.69;;;14.83;60.66
47366;BME280;33105;47.964;7.982;2023-10-13T04:21:00;96660.25;;;14.98;60.20
47366;BME280;33105;47.964;7.982;2023-10-13T04:24:30;96671.00;;;15.19;59.57
47366;BME280;33105;47.964;7.982;2023-10-13T04:28:01;96668.44;;;15.04;60.21
47366;BME280;33105;47.964;7.982;2023-10-13T04:31:15;96658.91;;;15.20;59.14
47366;BME280;33105;47.964;7.982;2023-10-13T04:34:25;96654.03;;;15.12;59.44
47366;BME280;33105;47.964;7.982;2023-10-13T04:37:29;96654.25;;;15.39;57.95
47366;BME280;33105;47.964;7.982;2023-10-13T04:40:30;96658.94;;;15.15;58.45
47366;BME280;33105;47.964;7.982;2023-10-13T04:43:36;96657.22;;;15.00;59.22
47366;BME280;33105;47.964;7.982;2023-10-13T04:46:57;96655.91;;;15.16;58.92
47366;BME280;33105;47.964;7.982;2023-10-13T04:50:02;96658.25;;;15.28;58.70
47366;BME280;33105;47.964;7.982;2023-10-13T04:53:21;96647.84;;;15.25;58.44
47366;BME280;33105;47.964;7.982;2023-10-13T04:56:35;96651.75;;;15.19;58.66
47366;BME280;33105;47.964;7.982;2023-10-13T04:59:42;96654.03;;;15.12;58.79
47366;BME280;33105;47.964;7.982;2023-10-13T05:03:02;96646.69;;;15.07;58.86
47366;BME280;33105;47.964;7.982;2023-10-13T05:06:38;96641.53;;;15.01;59.16
47366;BME280;33105;47.964;7.982;2023-10-13T05:09:45;96638.47;;;15.02;57.98
47366;BME280;33105;47.964;7.982;2023-10-13T05:13:05;96643.56;;;15.14;58.28
47366;BME280;33105;47.964;7.982;2023-10-13T05:16:25;96638.97;;;15.09;58.44
47366;BME280;33105;47.964;7.982;2023-10-13T05:19:44;96626.13;;;15.42;56.56
47366;BME280;33105;47.964;7.982;2023-10-13T05:23:04;96639.63;;;15.20;57.75
47366;BME280;33105;47.964;7.982;2023-10-13T05:26:24;96640.47;;;14.96;58.37
47366;BME280;33105;47.964;7.982;2023-10-13T05:29:45;96641.19;;;15.07;57.71
47366;BME280;33105;47.964;7.982;2023-10-13T05:33:05;96640.06;;;14.84;58.09
47366;BME280;33105;47.964;7.982;2023-10-13T05:36:24;96638.81;;;14.95;57.67
47366;BME280;33105;47.964;7.982;2023-10-13T05:39:44;96642.44;;;15.15;55.61
47366;BME280;33105;47.964;7.982;2023-10-13T05:43:04;96641.56;;;15.19;56.35
47366;BME280;33105;47.964;7.982;2023-10-13T05:46:24;96645.56;;;15.08;56.47
47366;BME280;33105;47.964;7.982;2023-10-13T05:49:28;96646.69;;;15.07;55.91
47366;BME280;33105;47.964;7.982;2023-10-13T05:52:50;96637.94;;;15.00;56.65
47366;BME280;33105;47.964;7.982;2023-10-13T05:56:01;96645.97;;;14.96;56.22
47366;BME280;33105;47.964;7.982;2023-10-13T05:59:21;96644.22;;;15.06;56.03
47366;BME280;33105;47.964;7.982;2023-10-13T06:02:40;96647.91;;;14.96;55.46
47366;BME280;33105;47.964;7.982;2023-10-13T06:06:00;96652.63;;;14.90;56.19
47366;BME280;33105;47.964;7.982;2023-10-13T06:09:23;96649.09;;;14.85;55.84
47366;BME280;33105;47.964;7.982;2023-10-13T06:12:43;96648.31;;;14.84;55.98
47366;BME280;33105;47.964;7.982;2023-10-13T06:16:12;96651.13;;;14.79;56.84
47366;BME280;33105;47.964;7.982;2023-10-13T06:19:32;96645.38;;;15.00;56.14
47366;BME280;33105;47.964;7.982;2023-10-13T06:22:52;96644.97;;;14.87;55.89
47366;BME280;33105;47.964;7.982;2023-10-13T06:26:12;96642.94;;;14.98;56.01
47366;BME280;33105;47.964;7.982;2023-10-13T06:29:31;96650.75;;;14.86;56.90
47366;BME280;33105;47.964;7.982;2023-10-13T06:32:32;96653.81;;;14.84;57.00
47366;BME280;33105;47.964;7.982;2023-10-13T06:35:34;96646.69;;;14.83;56.56
47366;BME280;33105;47.964;7.982;2023-10-13T06:38:40;96644.81;;;14.79;57.44
47366;BME280;33105;47.964;7.982;2023-10-13T06:41:42;96646.28;;;14.66;54.88
47366;BME280;33105;47.964;7.982;2023-10-13T06:44:45;96654.16;;;14.78;57.18
47366;BME280;33105;47.964;7.982;2023-10-13T06:47:47;96649.94;;;14.85;55.59
47366;BME280;33105;47.964;7.982;2023-10-13T06:50:53;96649.47;;;15.02;57.23
47366;BME280;33105;47.964;7.982;2023-10-13T06:53:56;96653.75;;;15.13;54.01
47366;BME280;33105;47.964;7.982;2023-10-13T06:56:58;96641.63;;;14.90;55.68
47366;BME280;33105;47.964;7.982;2023-10-13T06:59:59;96644.47;;;15.09;55.60
47366;BME280;33105;47.964;7.982;2023-10-13T07:03:07;96649.00;;;15.19;55.48
47366;BME280;33105;47.964;7.982;2023-10-13T07:06:09;96647.31;;;15.65;52.28
47366;BME280;33105;47.964;7.982;2023-10-13T07:09:13;96648.13;;;15.66;53.15
47366;BME280;33105;47.964;7.982;2023-10-13T07:12:34;96647.44;;;15.55;54.46
47366;BME280;33105;47.964;7.982;2023-10-13T07:15:36;96645.56;;;15.51;54.60
47366;BME280;33105;47.964;7.982;2023-10-13T07:18:45;96654.38;;;15.72;54.55
47366;BME280;33105;47.964;7.982;2023-10-13T07:22:00;96651.50;;;15.82;53.85
47366;BME280;33105;47.964;7.982;2023-10-13T07:25:21;96644.38;;;16.32;50.73
47366;BME280;33105;47.964;7.982;2023-10-13T07:28:26;96643.53;;;15.99;55.32
47366;BME280;33105;47.964;7.982;2023-10-13T07:31:27;96641.41;;;16.10;51.94
47366;BME280;33105;47.964;7.982;2023-10-13T07:34:31;96640.06;;;16.26;52.49
47366;BME280;33105;47.964;7.982;2023-10-13T07:37:33;96644.31;;;16.18;55.09
47366;BME280;33105;47.964;7.982;2023-10-13T07:40:34;96654.38;;;16.09;53.99
47366;BME280;33105;47.964;7.982;2023-10-13T07:43:36;96655.94;;;16.15;56.00
47366;BME280;33105;47.964;7.982;2023-10-13T07:46:43;96650.00;;;16.08;57.14
47366;BME280;33105;47.964;7.982;2023-10-13T07:49:47;96656.00;;;16.10;56.59
47366;BME280;33105;47.964;7.982;2023-10-13T07:52:51;96645.81;;;16.11;55.55
47366;BME280;33105;47.964;7.982;2023-10-13T07:56:28;96646.16;;;16.23;56.53
47366;BME280;33105;47.964;7.982;2023-10-13T07:59:31;96652.22;;;16.39;56.59
47366;BME280;33105;47.964;7.982;2023-10-13T08:02:32;96647.03;;;16.37;56.92
47366;BME280;33105;47.964;7.982;2023-10-13T08:05:53;96642.31;;;16.38;56.83
47366;BME280;33105;47.964;7.982;2023-10-13T08:08:59;96643.28;;;16.47;55.45
47366;BME280;33105;47.964;7.982;2023-10-13T08:12:29;96642.59;;;16.55;56.57
47366;BME280;33105;47.964;7.982;2023-10-13T08:15:30;96644.63;;;16.63;59.58
47366;BME280;33105;47.964;7.982;2023-10-13T08:18:35;96642.84;;;16.72;55.40
47366;BME280;33105;47.964;7.982;2023-10-13T08:21:37;96632.84;;;16.90;56.93
47366;BME280;33105;47.964;7.982;2023-10-13T08:24:38;96640.13;;;16.99;58.08
47366;BME280;33105;47.964;7.982;2023-10-13T08:27:39;96632.88;;;17.17;58.77
47366;BME280;33105;47.964;7.982;2023-10-13T08:31:06;96632.66;;;17.41;57.80
47366;BME280;33105;47.964;7.982;2023-10-13T08:34:23;96628.31;;;17.62;58.27
47366;BME280;33105;47.964;7.982;2023-10-13T08:37:26;96629.94;;;17.63;56.18
47366;BME280;33105;47.964;7.982;2023-10-13T08:40:27;96633.75;;;17.81;56.37
47366;BME280;33105;47.964;7.982;2023-10-13T08:44:01;96632.94;;;17.81;54.57
47366;BME280;33105;47.964;7.982;2023-10-13T08:47:05;96628.91;;;17.87;57.30
47366;BME280;33105;47.964;7.982;2023-10-13T08:50:07;96635.09;;;18.06;56.37
47366;BME280;33105;47.964;7.982;2023-10-13T08:53:32;96632.25;;;18.20;57.27
47366;BME280;33105;47.964;7.982;2023-10-13T08:56:47;96627.44;;;18.25;56.96
47366;BME280;33105;47.964;7.982;2023-10-13T08:59:58;96633.16;;;18.29;56.43
47366;BME280;33105;47.964;7.982;2023-10-13T09:03:19;96612.66;;;18.52;56.75
47366;BME280;33105;47.964;7.982;2023-10-13T09:06:31;96614.16;;;18.89;56.74
47366;BME280;33105;47.964;7.982;2023-10-13T09:12:41;96599.22;;;19.47;56.14
47366;BME280;33105;47.964;7.982;2023-10-13T09:16:09;96600.91;;;19.83;52.74
47366;BME280;33105;47.964;7.982;2023-10-13T09:19:16;96597.81;;;20.19;47.21
47366;BME280;33105;47.964;7.982;2023-10-13T09:22:29;96596.72;;;20.84;47.42
47366;BME280;33105;47.964;7.982;2023-10-13T09:25:40;96584.44;;;21.31;42.82
47366;BME280;33105;47.964;7.982;2023-10-13T09:28:54;96583.47;;;22.07;40.71
47366;BME280;33105;47.964;7.982;2023-10-13T09:32:00;96587.47;;;22.18;39.83
47366;BME280;33105;47.964;7.982;2023-10-13T09:35:03;96585.81;;;22.38;38.01
47366;BME280;33105;47.964;7.982;2023-10-13T09:38:07;96577.88;;;23.06;34.38
47366;BME280;33105;47.964;7.982;2023-10-13T09:41:08;96576.13;;;23.01;36.35
47366;BME280;33105;47.964;7.982;2023-10-13T09:44:19;96571.66;;;22.76;38.11
47366;BME280;33105;47.964;7.982;2023-10-13T09:47:23;96574.28;;;23.05;39.06
47366;BME280;33105;47.964;7.982;2023-10-13T09:50:38;96571.16;;;23.31;37.71
47366;BME280;33105;47.964;7.982;2023-10-13T09:53:52;96569.75;;;23.37;35.33
47366;BME280;33105;47.964;7.982;2023-10-13T09:57:08;96574.31;;;23.54;37.74
47366;BME280;33105;47.964;7.982;2023-10-13T10:00:15;96565.25;;;23.21;38.22
47366;BME280;33105;47.964;7.982;2023-10-13T10:03:45;96567.88;;;23.05;36.83
47366;BME280;33105;47.964;7.982;2023-10-13T10:09:58;96550.72;;;23.15;38.77
47366;BME280;33105;47.964;7.982;2023-10-13T10:13:11;96559.78;;;23.24;37.14
47366;BME280;33105;47.964;7.982;2023-10-13T10:16:20;96557.13;;;23.16;38.09
47366;BME280;33105;47.964;7.982;2023-10-13T10:19:28;96551.88;;;23.38;38.96
47366;BME280;33105;47.964;7.982;2023-10-13T10:22:31;96540.84;;;23.42;36.60
47366;BME280;33105;47.964;7.982;2023-10-13T10:25:37;96544.09;;;23.44;38.07
47366;BME280;33105;47.964;7.982;2023-10-13T10:28:46;96536.66;;;23.48;35.21
47366;BME280;33105;47.964;7.982;2023-10-13T10:31:48;96533.53;;;23.62;34.83
47366;BME280;33105;47.964;7.982;2023-10-13T10:34:49;96540.91;;;23.82;38.28
47366;BME280;33105;47.964;7.982;2023-10-13T10:37:50;96537.56;;;24.04;37.95
47366;BME280;33105;47.964;7.982;2023-10-13T10:40:54;96529.78;;;24.10;37.04
47366;BME280;33105;47.964;7.982;2023-10-13T10:43:58;96526.25;;;24.25;35.46
47366;BME280;33105;47.964;7.982;2023-10-13T10:47:14;96516.53;;;24.07;35.90
47366;BME280;33105;47.964;7.982;2023-10-13T10:50:39;96522.34;;;24.02;34.13
47366;BME280;33105;47.964;7.982;2023-10-13T10:53:42;96514.91;;;24.06;36.48
47366;BME280;33105;47.964;7.982;2023-10-13T10:56:46;96511.63;;;24.16;35.93
47366;BME280;33105;47.964;7.982;2023-10-13T10:59:53;96517.38;;;24.35;35.20
47366;BME280;33105;47.964;7.982;2023-10-13T11:03:12;96496.88;;;24.91;32.74
47366;BME280;33105;47.964;7.982;2023-10-13T11:06:13;96502.28;;;25.31;33.25
47366;BME280;33105;47.964;7.982;2023-10-13T11:09:27;96490.31;;;25.50;32.45
47366;BME280;33105;47.964;7.982;2023-10-13T11:12:28;96483.75;;;25.42;32.80
47366;BME280;33105;47.964;7.982;2023-10-13T11:15:41;96482.34;;;25.32;32.39
47366;BME280;33105;47.964;7.982;2023-10-13T11:18:45;96479.63;;;25.36;31.78
47366;BME280;33105;47.964;7.982;2023-10-13T11:21:49;96477.31;;;25.22;32.13
47366;BME280;33105;47.964;7.982;2023-10-13T11:24:50;96469.28;;;25.71;31.17
47366;BME280;33105;47.964;7.982;2023-10-13T11:27:51;96470.13;;;25.75;29.86
47366;BME280;33105;47.964;7.982;2023-10-13T11:30:52;96472.56;;;25.77;31.59
47366;BME280;33105;47.964;7.982;2023-10-13T11:33:57;96460.34;;;25.50;29.98
47366;BME280;33105;47.964;7.982;2023-10-13T11:37:02;96456.19;;;25.60;30.14
47366;BME280;33105;47.964;7.982;2023-10-13T11:40:23;96454.03;;;25.53;27.78
47366;BME280;33105;47.964;7.982;2023-10-13T11:43:48;96448.59;;;25.60;28.12
47366;BME280;33105;47.964;7.982;2023-10-13T11:46:52;96433.81;;;26.18;26.20
47366;BME280;33105;47.964;7.982;2023-10-13T11:49:57;96436.63;;;25.79;28.00
47366;BME280;33105;47.964;7.982;2023-10-13T11:53:00;96434.78;;;26.06;27.53
47366;BME280;33105;47.964;7.982;2023-10-13T11:56:02;96424.94;;;25.93;27.36
47366;BME280;33105;47.964;7.982;2023-10-13T11:59:09;96424.16;;;26.15;26.98
47366;BME280;33105;47.964;7.982;2023-10-13T12:02:20;96432.75;;;26.26;26.75
47366;BME280;33105;47.964;7.982;2023-10-13T12:05:27;96418.94;;;26.14;27.88
47366;BME280;33105;47.964;7.982;2023-10-13T12:08:38;96412.28;;;26.41;26.19
47366;BME280;33105;47.964;7.982;2023-10-13T12:11:50;96395.09;;;26.23;25.64
47366;BME280;33105;47.964;7.982;2023-10-13T12:14:55;96400.44;;;26.51;27.28
47366;BME280;33105;47.964;7.982;2023-10-13T12:17:56;96393.03;;;26.39;26.55
47366;BME280;33105;47.964;7.982;2023-10-13T12:20:59;96381.63;;;26.52;26.31
47366;BME280;33105;47.964;7.982;2023-10-13T12:24:02;96385.00;;;26.61;26.65
47366;BME280;33105;47.964;7.982;2023-10-13T12:27:04;96387.06;;;26.41;27.82
47366;BME280;33105;47.964;7.982;2023-10-13T12:30:21;96377.78;;;26.37;27.75
47366;BME280;33105;47.964;7.982;2023-10-13T12:33:49;96370.75;;;26.47;27.46
47366;BME280;33105;47.964;7.982;2023-10-13T12:36:50;96368.38;;;26.49;26.35
47366;BME280;33105;47.964;7.982;2023-10-13T12:40:08;96361.66;;;26.30;26.50
47366;BME280;33105;47.964;7.982;2023-10-13T12:43:28;96355.44;;;26.40;28.46
47366;BME280;33105;47.964;7.982;2023-10-13T12:46:48;96357.09;;;26.68;26.89
47366;BME280;33105;47.964;7.982;2023-10-13T12:50:08;96351.28;;;26.80;26.80
47366;BME280;33105;47.964;7.982;2023-10-13T12:53:15;96342.09;;;26.57;28.36
47366;BME280;33105;47.964;7.982;2023-10-13T12:56:17;96346.53;;;26.58;27.61
47366;BME280;33105;47.964;7.982;2023-10-13T12:59:26;96334.53;;;26.34;28.29
47366;BME280;33105;47.964;7.982;2023-10-13T13:02:27;96334.75;;;26.49;28.14
47366;BME280;33105;47.964;7.982;2023-10-13T13:05:30;96333.84;;;26.41;28.45
47366;BME280;33105;47.964;7.982;2023-10-13T13:08:33;96332.16;;;26.36;27.50
47366;BME280;33105;47.964;7.982;2023-10-13T13:11:37;96320.38;;;26.27;29.00
47366;BME280;33105;47.964;7.982;2023-10-13T13:14:40;96315.94;;;26.26;29.94
47366;BME280;33105;47.964;7.982;2023-10-13T13:17:46;96317.09;;;26.45;28.29
47366;BME280;33105;47.964;7.982;2023-10-13T13:20:48;96310.97;;;26.62;27.93
47366;BME280;33105;47.964;7.982;2023-10-13T13:23:55;96311.94;;;26.47;28.05
47366;BME280;33105;47.964;7.982;2023-10-13T13:26:57;96311.44;;;26.41;28.05
47366;BME280;33105;47.964;7.982;2023-10-13T13:30:04;96312.34;;;26.49;28.65
47366;BME280;33105;47.964;7.982;2023-10-13T13:33:13;96304.84;;;26.30;28.14
47366;BME280;33105;47.964;7.982;2023-10-13T13:36:16;96296.78;;;26.28;27.85
47366;BME280;33105;47.964;7.982;2023-10-13T13:39:19;96293.88;;;26.21;28.60
47366;BME280;33105;47.964;7.982;2023-10-13T13:42:29;96286.97;;;26.15;28.32
47366;BME280;33105;47.964;7.982;2023-10-13T13:45:37;96288.31;;;26.25;28.75
47366;BME280;33105;47.964;7.982;2023-10-13T13:48:42;96281.44;;;26.68;28.40
47366;BME280;33105;47.964;7.982;2023-10-13T13:51:45;96266.94;;;26.36;29.64
47366;BME280;33105;47.964;7.982;2023-10-13T13:54:52;96268.06;;;26.31;29.57
47366;BME280;33105;47.964;7.982;2023-10-13T13:57:55;96270.41;;;26.29;29.58
47366;BME280;33105;47.964;7.982;2023-10-13T14:01:01;96266.50;;;26.34;29.85
47366;BME280;33105;47.964;7.982;2023-10-13T14:04:12;96254.56;;;26.37;31.10
47366;BME280;33105;47.964;7.982;2023-10-13T14:07:18;96249.28;;;26.09;31.54
47366;BME280;33105;47.964;7.982;2023-10-13T14:10:20;96248.28;;;25.98;30.39
47366;BME280;33105;47.964;7.982;2023-10-13T14:13:35;96240.69;;;26.21;29.29
47366;BME280;33105;47.964;7.982;2023-10-13T14:16:53;96238.16;;;25.90;30.47
47366;BME280;33105;47.964;7.982;2023-10-13T14:19:56;96241.88;;;25.97;31.27
47366;BME280;33105;47.964;7.982;2023-10-13T14:22:57;96237.88;;;26.44;29.82
47366;BME280;33105;47.964;7.982;2023-10-13T14:25:59;96232.34;;;26.51;28.69
47366;BME280;33105;47.964;7.982;2023-10-13T14:29:00;96233.25;;;26.59;29.38
47366;BME280;33105;47.964;7.982;2023-10-13T14:32:02;96236.13;;;26.36;30.75
47366;BME280;33105;47.964;7.982;2023-10-13T14:35:05;96230.16;;;26.15;32.05
47366;BME280;33105;47.964;7.982;2023-10-13T14:38:15;96226.78;;;26.28;31.48
47366;BME280;33105;47.964;7.982;2023-10-13T14:41:16;96224.00;;;26.05;32.11
47366;BME280;33105;47.964;7.982;2023-10-13T14:44:19;96219.41;;;26.17;31.50
47366;BME280;33105;47.964;7.982;2023-10-13T14:47:20;96220.28;;;26.21;32.81
47366;BME280;33105;47.964;7.982;2023-10-13T14:50:25;96212.84;;;26.32;29.62
47366;BME280;33105;47.964;7.982;2023-10-13T14:53:26;96212.16;;;25.89;31.80
47366;BME280;33105;47.964;7.982;2023-10-13T14:56:27;96218.00;;;25.81;32.20
47366;BME280;33105;47.964;7.982;2023-10-13T14:59:29;96214.88;;;26.08;29.97
47366;BME280;33105;47.964;7.982;2023-10-13T15:02:39;96213.44;;;26.18;30.93
47366;BME280;33105;47.964;7.982;2023-10-13T15:05:44;96215.13;;;26.00;33.45
47366;BME280;33105;47.964;7.982;2023-10-13T15:08:45;96201.53;;;25.98;31.56
47366;BME280;33105;47.964;7.982;2023-10-13T15:11:50;96216.94;;;25.89;30.17
47366;BME280;33105;47.964;7.982;2023-10-13T15:14:55;96212.66;;;25.72;32.87
47366;BME280;33105;47.964;7.982;2023-10-13T15:17:57;96200.44;;;25.61;31.18
47366;BME280;33105;47.964;7.982;2023-10-13T15:20:59;96202.47;;;25.41;32.99
47366;BME280;33105;47.964;7.982;2023-10-13T15:24:04;96203.97;;;25.35;32.30
47366;BME280;33105;47.964;7.982;2023-10-13T15:27:14;96196.75;;;25.34;33.48
47366;BME280;33105;47.964;7.982;2023-10-13T15:30:16;96189.28;;;25.19;32.81
47366;BME280;33105;47.964;7.982;2023-10-13T15:33:50;96207.81;;;24.88;35.23
47366;BME280;33105;47.964;7.982;2023-10-13T15:36:54;96200.41;;;24.96;32.79
47366;BME280;33105;47.964;7.982;2023-10-13T15:39:56;96202.50;;;24.64;36.21
47366;BME280;33105;47.964;7.982;2023-10-13T15:42:58;96196.44;;;24.42;35.86
47366;BME280;33105;47.964;7.982;2023-10-13T15:46:00;96193.31;;;24.28;37.59
47366;BME280;33105;47.964;7.982;2023-10-13T15:49:05;96192.88;;;24.11;38.45
47366;BME280;33105;47.964;7.982;2023-10-13T15:52:07;96187.88;;;23.85;40.98
47366;BME280;33105;47.964;7.982;2023-10-13T15:55:10;96188.16;;;23.64;41.26
47366;BME280;33105;47.964;7.982;2023-10-13T15:58:14;96175.44;;;23.35;42.05
47366;BME280;33105;47.964;7.982;2023-10-13T16:01:17;96167.06;;;23.19;42.77
47366;BME280;33105;47.964;7.982;2023-10-13T16:04:18;96178.09;;;23.00;42.30
47366;BME280;33105;47.964;7.982;2023-10-13T16:07:20;96173.28;;;22.85;43.86
47366;BME280;33105;47.964;7.982;2023-10-13T16:10:22;96171.38;;;22.61;43.70
47366;BME280;33105;47.964;7.982;2023-10-13T16:13:24;96168.19;;;22.47;43.91
47366;BME280;33105;47.964;7.982;2023-10-13T16:16:25;96177.97;;;22.28;45.42
47366;BME280;33105;47.964;7.982;2023-10-13T16:19:26;96174.97;;;22.09;45.12
47366;BME280;33105;47.964;7.982;2023-10-13T16:22:28;96183.56;;;21.92;43.17
47366;BME280;33105;47.964;7.982;2023-10-13T16:25:33;96174.06;;;21.68;43.08
47366;BME280;33105;47.964;7.982;2023-10-13T16:28:35;96172.66;;;21.62;44.26
47366;BME280;33105;47.964;7.982;2023-10-13T16:31:36;96181.03;;;21.50;46.93
47366;BME280;33105;47.964;7.982;2023-10-13T16:34:38;96185.00;;;21.28;45.83
47366;BME280;33105;47.964;7.982;2023-10-13T16:37:39;96190.19;;;21.18;46.09
47366;BME280;33105;47.964;7.982;2023-10-13T16:40:40;96193.63;;;21.02;47.06